Time;durP1;ratioP1;P1;durP2;ratioP2;P2;SDS_P1;SDS_P2;PMS_P1;PMS_P2;Temp;Humidity;BMP_temperature;BMP_pressure;BME280_temperature;BME280_humidity;BME280_pressure;Samples;Min_cycle;Max_cycle;Signal;HPM_P1;HPM_P2
2022/11/07 00:00:32;;;;;;;10.07;7.15;;;10.50;99.90;;;;;;5078196;28;20051;-87
2022/11/07 00:02:58;;;;;;;11.25;7.10;;;10.60;99.90;;;;;;5061541;28;20460;-87
2022/11/07 00:05:23;;;;;;;8.00;6.88;;;10.60;99.90;;;;;;5078243;28;20035;-87
2022/11/07 00:07:49;;;;;;;12.73;6.68;;;10.60;99.90;;;;;;5078043;28;20400;-87
2022/11/07 00:10:15;;;;;;;7.28;6.40;;;10.60;99.90;;;;;;5061773;28;20075;-86
2022/11/07 00:12:40;;;;;;;14.40;7.53;;;10.60;99.90;;;;;;5077929;28;20058;-87
2022/11/07 00:15:06;;;;;;;7.90;5.13;;;10.60;99.90;;;;;;5078854;28;20055;-86
2022/11/07 00:17:32;;;;;;;8.77;6.00;;;10.70;99.90;;;;;;5088686;28;20043;-86
2022/11/07 00:19:58;;;;;;;6.93;6.10;;;10.70;99.90;;;;;;5119613;28;20023;-85
2022/11/07 00:22:23;;;;;;;10.60;6.07;;;10.70;99.90;;;;;;5100103;28;20106;-87
2022/11/07 00:24:49;;;;;;;10.15;6.57;;;9.50;99.90;;;;;;5055066;28;20043;-86
2022/11/07 00:27:14;;;;;;;12.13;6.60;;;10.80;99.90;;;;;;5094763;28;20043;-87
2022/11/07 00:29:40;;;;;;;11.77;5.93;;;10.70;99.90;;;;;;5069097;28;20054;-88
2022/11/07 00:32:06;;;;;;;8.18;5.63;;;10.80;99.90;;;;;;5068836;28;20058;-88
2022/11/07 00:34:34;;;;;;;11.13;6.35;;;10.90;99.90;;;;;;5052277;28;20131;-87
2022/11/07 00:37:01;;;;;;;11.90;6.10;;;10.90;99.90;;;;;;5050799;28;20077;-88
2022/11/07 00:39:26;;;;;;;7.32;5.75;;;10.90;99.90;;;;;;5068789;28;20047;-87
2022/11/07 00:41:52;;;;;;;8.48;5.80;;;10.80;99.90;;;;;;5051098;28;20457;-87
2022/11/07 00:44:17;;;;;;;8.07;5.68;;;10.90;99.90;;;;;;5067599;28;20505;-88
2022/11/07 00:46:43;;;;;;;8.00;5.65;;;10.90;99.90;;;;;;5069003;28;20044;-88
2022/11/07 00:49:09;;;;;;;8.93;5.90;;;10.80;99.90;;;;;;5069077;28;20101;-87
2022/11/07 00:51:35;;;;;;;7.80;5.32;;;10.90;99.90;;;;;;5072404;28;20023;-84
2022/11/07 00:54:03;;;;;;;10.82;6.00;;;11.00;99.90;;;;;;5088921;28;20061;-87
2022/11/07 00:56:29;;;;;;;8.35;5.53;;;10.90;99.90;;;;;;5071815;28;20058;-87
2022/11/07 00:58:58;;;;;;;11.57;5.60;;;10.90;99.90;;;;;;5086902;28;20055;-87
2022/11/07 01:01:25;;;;;;;12.48;4.95;;;10.90;99.90;;;;;;5089248;28;20487;-87
2022/11/07 01:06:36;;;;;;;;;;;10.90;99.90;;;;;;5089903;28;20043;-86
2022/11/07 01:09:03;;;;;;;10.35;4.63;;;10.90;99.90;;;;;;5087644;27;20393;-87
2022/11/07 01:11:29;;;;;;;12.13;5.93;;;10.80;99.90;;;;;;5089526;27;20056;-86
2022/11/07 01:13:55;;;;;;;8.27;5.40;;;10.90;99.90;;;;;;5093739;27;20092;-87
2022/11/07 01:16:22;;;;;;;11.00;5.35;;;11.00;99.90;;;;;;5088052;28;20473;-86
2022/11/07 01:18:48;;;;;;;9.43;5.10;;;11.00;99.90;;;;;;5075072;27;20043;-86
2022/11/07 01:21:13;;;;;;;13.52;5.00;;;11.10;99.90;;;;;;5073492;27;20425;-86
2022/11/07 01:23:39;;;;;;;9.50;4.88;;;11.20;99.90;;;;;;5137037;27;20534;-86
2022/11/07 01:26:05;;;;;;;12.25;5.30;;;11.20;99.90;;;;;;5084620;27;20495;-86
2022/11/07 01:28:31;;;;;;;10.10;5.30;;;11.20;99.90;;;;;;5085709;27;20042;-86
2022/11/07 01:30:57;;;;;;;11.40;5.88;;;11.20;99.90;;;;;;5095462;27;20051;-87
2022/11/07 01:33:23;;;;;;;11.00;5.43;;;11.10;99.90;;;;;;5103330;27;20034;-86
2022/11/07 01:35:48;;;;;;;9.52;5.38;;;11.10;99.90;;;;;;5142773;27;20135;-85
2022/11/07 01:38:14;;;;;;;6.90;4.35;;;11.10;99.90;;;;;;5142479;27;20026;-86
2022/11/07 01:41:19;;;;;;;9.82;5.20;;;11.10;99.90;;;;;;5096529;27;20110;-86
2022/11/07 01:43:45;;;;;;;10.45;5.00;;;11.10;99.90;;;;;;5104023;27;20051;-86
2022/11/07 01:46:11;;;;;;;;;;;11.20;99.90;;;;;;5119408;27;20047;-86
2022/11/07 01:48:37;;;;;;;7.82;4.28;;;11.20;99.90;;;;;;5101450;27;19919;-86
2022/11/07 01:51:03;;;;;;;9.18;5.35;;;11.30;99.90;;;;;;5101131;27;20055;-86
2022/11/07 01:53:29;;;;;;;8.52;4.43;;;11.30;99.90;;;;;;5084221;27;20051;-87
2022/11/07 01:55:55;;;;;;;10.73;4.68;;;11.30;99.90;;;;;;5083675;27;20078;-86
2022/11/07 01:58:20;;;;;;;7.55;4.13;;;11.30;99.90;;;;;;5100570;27;20043;-87
2022/11/07 02:00:46;;;;;;;9.98;4.47;;;11.20;99.90;;;;;;5100761;27;20050;-86
2022/11/07 02:03:13;;;;;;;8.77;4.93;;;11.20;99.90;;;;;;5083997;27;20054;-86
2022/11/07 02:05:44;;;;;;;6.95;4.70;;;11.30;99.90;;;;;;5083986;27;20126;-85
2022/11/07 02:08:11;;;;;;;11.13;4.75;;;11.30;99.90;;;;;;5067452;27;20043;-87
2022/11/07 02:10:37;;;;;;;7.75;4.97;;;11.30;99.90;;;;;;5139793;27;20095;-86
2022/11/07 02:13:03;;;;;;;7.90;4.45;;;11.20;99.90;;;;;;5102005;27;20043;-86
2022/11/07 02:15:28;;;;;;;9.32;4.70;;;11.20;99.90;;;;;;5101135;27;20043;-86
2022/11/07 02:17:54;;;;;;;7.00;4.55;;;11.20;99.90;;;;;;5117363;27;20134;-86
2022/11/07 02:20:20;;;;;;;10.88;5.22;;;11.20;99.90;;;;;;5083423;27;20122;-87
2022/11/07 02:22:50;;;;;;;7.90;4.75;;;11.20;99.90;;;;;;5100281;27;20047;-86
2022/11/07 02:25:16;;;;;;;10.18;5.25;;;11.30;99.90;;;;;;5084419;27;20087;-86
2022/11/07 02:27:42;;;;;;;11.82;4.90;;;11.20;99.90;;;;;;5101391;27;20103;-86
2022/11/07 02:30:17;;;;;;;10.75;5.28;;;11.20;99.90;;;;;;5084107;27;20126;-86
2022/11/07 02:32:42;;;;;;;;;;;11.30;99.90;;;;;;5067693;27;20047;-85
2022/11/07 02:35:30;;;;;;;12.18;5.00;;;11.30;99.90;;;;;;5117186;27;19927;-86
2022/11/07 02:37:55;;;;;;;9.05;4.70;;;11.20;99.90;;;;;;5117327;27;20035;-86
2022/11/07 02:40:22;;;;;;;8.48;4.50;;;11.20;99.90;;;;;;5083701;27;20111;-86
2022/11/07 02:42:48;;;;;;;9.02;4.30;;;11.20;99.90;;;;;;5066465;27;20045;-86
2022/11/07 02:45:17;;;;;;;10.18;4.68;;;11.20;99.90;;;;;;5067330;27;20069;-86
2022/11/07 02:47:43;;;;;;;8.02;4.82;;;11.20;99.90;;;;;;5067366;27;20074;-86
2022/11/07 02:50:10;;;;;;;8.15;4.95;;;11.20;99.90;;;;;;5129475;27;20015;-85
2022/11/07 02:52:36;;;;;;;12.95;4.80;;;11.30;99.90;;;;;;5124478;27;20035;-86
2022/11/07 02:55:02;;;;;;;12.50;5.28;;;11.20;99.90;;;;;;5106863;27;20051;-86
2022/11/07 02:57:28;;;;;;;11.07;4.50;;;11.20;99.90;;;;;;5112253;27;20040;-87
2022/11/07 02:59:53;;;;;;;8.25;4.82;;;11.20;99.90;;;;;;5083243;27;20058;-87
2022/11/07 03:02:19;;;;;;;8.77;5.47;;;11.30;99.90;;;;;;5083155;27;20054;-87
2022/11/07 03:04:44;;;;;;;16.00;4.93;;;11.30;99.90;;;;;;5083320;27;20047;-87
2022/11/07 03:07:10;;;;;;;7.35;4.30;;;11.40;99.90;;;;;;5100114;27;20043;-86
2022/11/07 03:09:36;;;;;;;8.15;4.82;;;11.50;99.90;;;;;;5117344;27;20047;-86
2022/11/07 03:12:01;;;;;;;7.20;4.50;;;11.50;99.90;;;;;;5100060;27;20071;-86
2022/11/07 03:14:27;;;;;;;12.32;5.00;;;11.40;99.90;;;;;;5116765;27;20047;-86
2022/11/07 03:16:52;;;;;;;9.18;4.75;;;11.40;99.90;;;;;;5099349;27;20043;-86
2022/11/07 03:19:18;;;;;;;13.50;4.55;;;11.30;99.90;;;;;;5099925;27;20046;-87
2022/11/07 03:21:44;;;;;;;6.78;4.05;;;11.30;99.90;;;;;;5116989;27;20130;-84
2022/11/07 03:24:09;;;;;;;11.02;4.88;;;11.40;99.90;;;;;;5099442;27;20081;-87
2022/11/07 03:26:35;;;;;;;10.70;5.03;;;11.30;99.90;;;;;;5107104;27;20047;-84
2022/11/07 03:29:01;;;;;;;10.70;4.32;;;11.30;99.90;;;;;;5106944;27;20101;-86
2022/11/07 03:31:26;;;;;;;12.43;4.85;;;11.30;99.90;;;;;;5108572;27;20085;-86
2022/11/07 03:33:52;;;;;;;15.35;4.70;;;11.30;99.90;;;;;;5118774;27;20054;-86
2022/11/07 03:36:17;;;;;;;9.65;4.50;;;11.20;99.90;;;;;;5116098;27;20083;-86
2022/11/07 03:38:43;;;;;;;8.93;3.78;;;11.20;99.90;;;;;;5115802;27;20095;-87
2022/11/07 03:41:15;;;;;;;9.05;5.10;;;11.20;99.90;;;;;;5099283;27;20130;-87
2022/11/07 03:43:44;;;;;;;11.35;4.55;;;11.10;99.90;;;;;;5116660;27;20058;-86
2022/11/07 03:46:13;;;;;;;12.65;5.07;;;11.10;99.90;;;;;;5098997;27;20139;-86
2022/11/07 03:48:39;;;;;;;10.77;5.03;;;11.10;99.90;;;;;;5082805;27;20054;-87
2022/11/07 03:51:05;;;;;;;11.38;4.82;;;11.10;99.90;;;;;;5081765;27;20051;-86
2022/11/07 03:53:31;;;;;;;8.75;4.65;;;11.10;99.90;;;;;;5098856;27;20051;-86
2022/11/07 03:55:57;;;;;;;12.38;4.88;;;11.10;99.90;;;;;;5081897;27;20073;-87
2022/11/07 03:58:22;;;;;;;15.07;5.47;;;11.10;99.90;;;;;;5098795;27;20454;-86
2022/11/07 04:00:48;;;;;;;9.02;4.53;;;11.00;99.90;;;;;;5098986;27;20047;-86
2022/11/07 04:03:14;;;;;;;6.32;4.22;;;11.10;99.90;;;;;;5081855;27;20078;-87
2022/11/07 04:05:39;;;;;;;13.63;4.70;;;11.10;99.90;;;;;;5119365;27;20043;-85
2022/11/07 04:08:05;;;;;;;17.95;5.15;;;11.00;99.90;;;;;;5123185;27;20039;-85
2022/11/07 04:10:31;;;;;;;9.82;4.80;;;11.10;99.90;;;;;;5139311;27;20035;-86
2022/11/07 04:18:24;;;;;;;12.07;5.00;;;11.20;99.90;;;;;;5086746;27;20483;-87
2022/11/07 04:20:50;;;;;;;13.65;5.28;;;11.20;99.90;;;;;;5098572;27;20051;-87
2022/11/07 04:23:16;;;;;;;15.15;5.25;;;11.30;99.90;;;;;;5098503;27;20049;-86
2022/11/07 04:28:25;;;;;;;9.77;4.60;;;11.20;99.90;;;;;;5101272;27;20055;-86
2022/11/07 04:30:51;;;;;;;6.97;3.92;;;11.20;99.90;;;;;;5098083;27;20475;-87
2022/11/07 04:33:17;;;;;;;17.52;5.05;;;11.20;99.90;;;;;;5106137;28;20348;-87
2022/11/07 04:35:42;;;;;;;11.93;5.25;;;11.20;99.90;;;;;;5106969;28;20487;-85
2022/11/07 04:38:08;;;;;;;13.68;4.82;;;11.10;99.90;;;;;;5114644;28;20046;-87
2022/11/07 04:40:34;;;;;;;13.27;5.25;;;11.10;99.90;;;;;;5089171;28;20086;-86
2022/11/07 04:42:59;;;;;;;11.70;5.88;;;11.10;99.90;;;;;;5087478;28;20054;-85
2022/11/07 04:45:25;;;;;;;10.20;4.72;;;11.10;99.90;;;;;;5104817;27;20043;-86
2022/11/07 04:47:51;;;;;;;11.10;4.88;;;11.20;99.90;;;;;;5118548;27;20050;-85
2022/11/07 04:50:18;;;;;;;11.95;5.13;;;11.20;99.90;;;;;;5112006;27;20147;-84
2022/11/07 04:52:44;;;;;;;10.88;3.83;;;11.20;99.90;;;;;;5097820;28;20055;-86
2022/11/07 04:55:17;;;;;;;13.45;4.93;;;11.20;99.90;;;;;;5101365;28;20055;-85
2022/11/07 04:57:43;;;;;;;8.88;4.35;;;11.30;99.90;;;;;;5051692;28;20160;-87
2022/11/07 05:00:09;;;;;;;14.10;5.80;;;11.40;99.90;;;;;;5101065;28;20051;-86
2022/11/07 05:02:34;;;;;;;9.80;4.75;;;11.40;99.90;;;;;;5084414;28;20122;-86
2022/11/07 05:05:00;;;;;;;10.70;4.93;;;11.40;99.90;;;;;;5084594;28;20051;-87
2022/11/07 05:07:25;;;;;;;8.73;4.70;;;11.40;99.90;;;;;;5067755;28;20048;-86
2022/11/07 05:09:52;;;;;;;14.73;4.57;;;11.40;99.90;;;;;;5101575;28;20495;-86
2022/11/07 05:12:19;;;;;;;10.80;4.15;;;11.40;99.90;;;;;;5101822;28;20437;-87
2022/11/07 05:14:45;;;;;;;12.43;4.90;;;11.40;99.90;;;;;;5068744;28;20105;-87
2022/11/07 05:17:13;;;;;;;14.45;4.90;;;11.40;99.90;;;;;;5070897;28;20048;-87
2022/11/07 05:19:41;;;;;;;6.88;4.28;;;11.50;99.90;;;;;;5087501;28;20035;-86
2022/11/07 05:24:53;;;;;;;8.35;4.25;;;11.30;99.90;;;;;;5111642;27;20038;-86
2022/11/07 05:27:18;;;;;;;11.65;4.30;;;11.30;99.90;;;;;;5091814;28;20044;-84
2022/11/07 05:29:44;;;;;;;9.73;4.65;;;11.30;99.90;;;;;;5081681;28;20050;-86
2022/11/07 05:32:10;;;;;;;7.50;4.03;;;11.30;99.90;;;;;;5100592;28;20161;-87
2022/11/07 05:34:35;;;;;;;12.07;4.50;;;11.30;99.90;;;;;;5067816;28;20265;-85
2022/11/07 05:37:01;;;;;;;15.40;3.70;;;11.30;99.90;;;;;;5101208;28;20039;-86
2022/11/07 05:39:27;;;;;;;10.55;4.75;;;11.40;99.90;;;;;;5101951;28;20081;-86
2022/11/07 05:41:52;;;;;;;9.38;5.00;;;11.30;99.90;;;;;;5105758;28;20062;-86
2022/11/07 05:44:18;;;;;;;14.52;5.25;;;11.30;99.90;;;;;;5069198;28;20080;-85
2022/11/07 05:46:44;;;;;;;10.60;4.85;;;11.30;99.90;;;;;;5103053;28;20047;-86
2022/11/07 05:49:09;;;;;;;11.82;4.75;;;11.20;99.90;;;;;;5084821;28;20094;-85
2022/11/07 05:51:35;;;;;;;12.25;5.43;;;11.20;99.90;;;;;;5068707;28;20043;-86
2022/11/07 05:54:00;;;;;;;9.88;5.10;;;11.20;99.90;;;;;;5100964;28;20052;-85
2022/11/07 05:56:26;;;;;;;10.82;5.05;;;11.20;99.90;;;;;;5097156;28;20119;-86
2022/11/07 05:58:52;;;;;;;13.15;5.03;;;11.10;99.90;;;;;;5080641;28;20071;-86
2022/11/07 06:01:17;;;;;;;13.98;5.00;;;11.20;99.90;;;;;;5097390;28;20048;-86
2022/11/07 06:03:43;;;;;;;13.85;5.80;;;11.20;99.90;;;;;;5081263;28;20054;-86
2022/11/07 06:06:11;;;;;;;10.18;5.40;;;11.20;99.90;;;;;;5120610;28;20053;-85
2022/11/07 06:08:37;;;;;;;8.63;5.50;;;11.20;99.90;;;;;;5101541;28;20040;-84
2022/11/07 06:11:04;;;;;;;12.05;4.72;;;11.20;99.90;;;;;;5108434;28;20040;-86
2022/11/07 06:13:30;;;;;;;8.70;4.78;;;11.20;99.90;;;;;;5080731;28;20411;-86
2022/11/07 06:15:56;;;;;;;11.75;5.05;;;11.20;99.90;;;;;;5097615;28;20050;-86
2022/11/07 06:18:22;;;;;;;9.13;5.00;;;11.20;99.90;;;;;;5079749;28;20040;-86
2022/11/07 06:20:47;;;;;;;9.80;4.60;;;11.10;99.90;;;;;;5080375;28;20058;-86
2022/11/07 06:23:13;;;;;;;10.52;4.80;;;11.20;99.90;;;;;;5080007;28;20048;-86
2022/11/07 06:25:39;;;;;;;8.20;4.68;;;11.10;99.90;;;;;;5097091;28;20043;-86
2022/11/07 06:28:06;;;;;;;11.13;4.97;;;11.00;99.90;;;;;;5080447;28;20047;-86
2022/11/07 06:30:32;;;;;;;8.52;4.78;;;11.00;99.90;;;;;;5080097;28;20098;-86
2022/11/07 06:33:14;;;;;;;7.22;5.00;;;11.10;99.90;;;;;;5064027;28;20080;-86
2022/11/07 06:35:40;;;;;;;11.07;5.32;;;11.10;99.90;;;;;;5081588;28;20048;-86
2022/11/07 06:38:09;;;;;;;7.05;4.38;;;11.20;99.90;;;;;;5082184;28;20123;-86
2022/11/07 06:40:35;;;;;;;10.27;5.15;;;11.10;99.90;;;;;;5087680;28;20042;-85
2022/11/07 06:43:14;;;;;;;8.38;5.03;;;11.20;99.90;;;;;;5104249;28;20048;-85
2022/11/07 06:45:40;;;;;;;11.98;5.13;;;11.20;99.90;;;;;;5098317;28;20476;-86
2022/11/07 06:48:06;;;;;;;12.07;4.93;;;11.10;99.90;;;;;;5079012;28;20043;-86
2022/11/07 06:50:31;;;;;;;8.73;4.78;;;11.10;99.90;;;;;;5079682;28;20087;-86
2022/11/07 06:53:05;;;;;;;11.05;6.88;;;11.10;99.90;;;;;;5096097;28;20059;-86
2022/11/07 06:55:32;;;;;;;9.93;5.33;;;11.10;99.90;;;;;;5113117;28;20123;-87
2022/11/07 06:57:59;;;;;;;15.32;5.72;;;11.00;99.90;;;;;;5096896;28;20043;-87
2022/11/07 07:00:28;;;;;;;16.38;6.07;;;11.00;99.90;;;;;;5112746;28;20052;-86
2022/11/07 07:02:54;;;;;;;11.13;5.68;;;11.00;99.90;;;;;;5096125;28;20491;-86
2022/11/07 07:05:19;;;;;;;14.45;6.40;;;10.90;99.90;;;;;;5112525;28;20068;-87
2022/11/07 07:07:45;;;;;;;12.32;6.57;;;10.90;99.90;;;;;;5095747;28;20051;-87
2022/11/07 07:10:11;;;;;;;13.23;6.32;;;11.00;99.90;;;;;;5096170;28;20071;-88
2022/11/07 07:12:36;;;;;;;12.40;6.25;;;10.90;99.90;;;;;;5079879;28;20099;-87
2022/11/07 07:15:02;;;;;;;13.82;7.65;;;11.00;99.90;;;;;;5113111;28;20040;-87
2022/11/07 07:17:28;;;;;;;16.63;8.18;;;11.00;99.90;;;;;;5095704;28;20036;-87
2022/11/07 07:19:53;;;;;;;17.95;7.22;;;10.90;99.90;;;;;;5089747;28;20141;-87
2022/11/07 07:22:19;;;;;;;19.23;8.10;;;10.90;99.90;;;;;;5075493;28;20134;-86
2022/11/07 07:24:46;;;;;;;17.98;8.30;;;10.90;99.90;;;;;;5076233;28;20059;-86
2022/11/07 07:27:12;;;;;;;18.42;7.85;;;10.90;99.90;;;;;;5099361;28;20047;-85
2022/11/07 07:29:38;;;;;;;17.90;8.45;;;11.00;99.90;;;;;;5090057;28;20511;-88
2022/11/07 07:32:04;;;;;;;16.33;8.23;;;11.00;99.90;;;;;;5059053;28;20059;-87
2022/11/07 07:34:29;;;;;;;17.42;8.25;;;11.00;99.90;;;;;;5075295;28;20082;-87
2022/11/07 07:36:55;;;;;;;15.88;8.30;;;11.10;99.90;;;;;;5087937;28;20052;-88
2022/11/07 07:39:22;;;;;;;17.75;8.50;;;11.10;99.90;;;;;;5102214;28;20055;-86
2022/11/07 07:41:49;;;;;;;17.67;8.18;;;11.10;99.90;;;;;;5079768;28;20123;-87
2022/11/07 07:44:14;;;;;;;16.75;7.53;;;11.20;99.90;;;;;;5102012;28;20051;-87
2022/11/07 07:46:40;;;;;;;17.50;8.30;;;11.10;99.90;;;;;;5101643;28;20091;-87
2022/11/07 07:49:07;;;;;;;16.02;8.38;;;11.20;99.90;;;;;;5076835;28;20098;-87
2022/11/07 07:51:32;;;;;;;19.45;7.82;;;11.20;99.90;;;;;;5059668;28;20052;-87
2022/11/07 07:53:58;;;;;;;18.85;8.93;;;11.20;99.90;;;;;;5059197;28;20087;-87
2022/11/07 07:56:24;;;;;;;17.38;7.88;;;11.20;99.90;;;;;;5093887;28;20079;-85
2022/11/07 07:58:49;;;;;;;16.20;7.03;;;11.20;99.90;;;;;;5065954;28;20051;-85
2022/11/07 08:01:15;;;;;;;17.15;7.30;;;11.20;99.90;;;;;;5115644;28;20053;-86
2022/11/07 08:03:41;;;;;;;18.33;7.68;;;11.30;99.90;;;;;;5065035;28;20047;-86
2022/11/07 08:06:06;;;;;;;16.13;7.45;;;11.30;99.90;;;;;;5058611;28;20059;-87
2022/11/07 08:08:32;;;;;;;18.98;7.25;;;11.30;99.90;;;;;;5074948;28;20046;-87
2022/11/07 08:11:02;;;;;;;12.25;6.15;;;11.30;99.90;;;;;;5058266;28;20055;-87
2022/11/07 08:13:28;;;;;;;14.00;6.65;;;11.30;99.90;;;;;;5076248;28;20755;-86
2022/11/07 08:15:54;;;;;;;15.73;7.28;;;11.30;99.90;;;;;;5060709;28;20047;-87
2022/11/07 08:18:20;;;;;;;14.05;6.07;;;11.40;99.90;;;;;;5076164;28;20036;-87
2022/11/07 08:20:50;;;;;;;13.32;6.10;;;11.50;99.90;;;;;;5077021;28;20592;-86
2022/11/07 08:23:16;;;;;;;11.48;5.55;;;11.50;99.90;;;;;;5076141;28;20052;-86
2022/11/07 08:25:42;;;;;;;15.75;6.15;;;11.50;99.90;;;;;;5058754;28;20056;-85
2022/11/07 08:28:08;;;;;;;14.65;5.97;;;11.50;99.90;;;;;;5078983;28;20233;-88
2022/11/07 08:30:34;;;;;;;16.38;5.78;;;11.60;99.90;;;;;;5084692;28;20535;-86
2022/11/07 08:33:00;;;;;;;15.23;5.90;;;11.60;99.90;;;;;;5083365;28;20039;-87
2022/11/07 08:35:26;;;;;;;14.00;5.63;;;11.60;99.90;;;;;;5100913;28;20055;-86
2022/11/07 08:37:55;;;;;;;14.00;6.25;;;11.60;99.90;;;;;;5098432;28;20044;-86
2022/11/07 08:40:20;;;;;;;15.05;7.20;;;11.70;99.90;;;;;;5083957;28;20048;-88
2022/11/07 08:42:46;;;;;;;17.73;6.40;;;11.80;99.90;;;;;;5101577;28;20040;-88
2022/11/07 08:45:12;;;;;;;16.48;5.30;;;11.80;99.90;;;;;;5114144;28;20044;-85
2022/11/07 08:47:37;;;;;;;14.73;4.78;;;11.90;99.90;;;;;;5120123;28;20047;-84
2022/11/07 08:50:04;;;;;;;13.05;5.10;;;12.00;99.90;;;;;;5082642;28;20078;-85
2022/11/07 08:52:29;;;;;;;13.07;5.22;;;12.10;99.90;;;;;;5096037;28;20143;-84
2022/11/07 08:54:55;;;;;;;10.63;4.93;;;12.10;99.90;;;;;;5087874;28;20079;-88
2022/11/07 08:57:21;;;;;;;14.25;5.35;;;12.20;99.90;;;;;;5105336;28;20036;-85
2022/11/07 08:59:52;;;;;;;15.38;4.70;;;12.20;99.90;;;;;;5068555;28;20043;-85
2022/11/07 09:02:18;;;;;;;15.15;4.90;;;12.20;99.90;;;;;;5067293;28;20048;-87
2022/11/07 09:04:43;;;;;;;10.90;4.65;;;12.30;99.90;;;;;;5051562;28;20103;-86
2022/11/07 09:07:09;;;;;;;11.13;4.70;;;12.30;99.90;;;;;;5091933;28;20050;-86
2022/11/07 09:09:35;;;;;;;11.98;4.90;;;12.30;99.90;;;;;;5087106;28;20051;-86
2022/11/07 09:12:00;;;;;;;11.60;4.40;;;12.30;99.90;;;;;;5115358;28;20085;-86
2022/11/07 09:14:26;;;;;;;18.17;4.93;;;12.40;99.90;;;;;;5107048;28;20039;-85
2022/11/07 09:16:52;;;;;;;11.60;3.90;;;12.40;99.90;;;;;;5106395;28;20077;-85
2022/11/07 09:19:17;;;;;;;13.77;4.00;;;12.40;99.90;;;;;;5121419;28;20051;-86
2022/11/07 09:21:44;;;;;;;12.70;4.38;;;12.50;99.90;;;;;;5116467;28;20051;-86
2022/11/07 09:24:10;;;;;;;11.98;4.57;;;12.50;99.90;;;;;;5098193;28;20046;-85
2022/11/07 09:26:35;;;;;;;15.95;4.80;;;12.50;99.90;;;;;;5057677;28;20040;-86
2022/11/07 09:29:01;;;;;;;11.60;4.43;;;12.40;99.90;;;;;;5089522;28;20040;-87
2022/11/07 09:31:27;;;;;;;17.63;6.18;;;12.30;99.90;;;;;;5067489;28;20059;-87
2022/11/07 09:33:53;;;;;;;9.85;4.07;;;12.20;99.90;;;;;;5087815;28;20574;-86
2022/11/07 09:36:19;;;;;;;14.30;4.57;;;12.10;99.90;;;;;;5112188;28;20387;-86
2022/11/07 09:38:44;;;;;;;12.10;4.93;;;12.10;99.90;;;;;;5121058;28;20047;-86
2022/11/07 09:41:42;;;;;;;13.73;4.55;;;12.00;99.90;;;;;;5099314;28;20054;-87
2022/11/07 09:44:20;;;;;;;9.07;4.63;;;12.00;99.90;;;;;;5074614;28;20083;-83
2022/11/07 09:47:07;;;;;;;13.98;4.93;;;11.90;99.90;;;;;;5093981;28;20039;-85
2022/11/07 09:49:37;;;;;;;17.55;4.95;;;11.90;99.90;;;;;;5075788;28;20368;-84
2022/11/07 09:52:07;;;;;;;12.40;4.43;;;11.80;99.90;;;;;;5088814;28;20505;-85
2022/11/07 09:54:36;;;;;;;13.07;4.70;;;11.90;99.90;;;;;;5059760;28;20055;-85
2022/11/07 09:57:02;;;;;;;11.77;4.85;;;11.90;99.90;;;;;;5062099;28;20122;-85
2022/11/07 09:59:36;;;;;;;17.10;5.25;;;12.00;99.90;;;;;;5051363;28;20131;-84
2022/11/07 10:02:02;;;;;;;;;;;12.10;99.90;;;;;;5055471;28;20118;-85
2022/11/07 10:04:28;;;;;;;13.77;4.97;;;12.10;99.90;;;;;;5100015;28;19975;-84
2022/11/07 10:07:09;;;;;;;12.35;4.30;;;12.20;99.90;;;;;;5070656;28;20105;-85
2022/11/07 10:09:58;;;;;;;14.43;4.78;;;12.20;99.90;;;;;;5056745;28;20473;-85
2022/11/07 10:12:39;;;;;;;9.38;4.45;;;12.30;99.90;;;;;;5076814;28;20107;-84
2022/11/07 10:15:26;;;;;;;10.70;3.60;;;12.30;99.90;;;;;;5057707;28;20074;-84
2022/11/07 10:17:58;;;;;;;15.50;4.97;;;12.40;99.90;;;;;;5073273;28;20102;-85
2022/11/07 10:20:44;;;;;;;10.25;3.78;;;12.40;99.90;;;;;;5092576;28;20047;-84
2022/11/07 10:23:36;;;;;;;13.55;4.30;;;12.50;99.90;;;;;;5037651;28;20101;-84
2022/11/07 10:26:09;;;;;;;9.73;4.22;;;12.50;99.90;;;;;;5091326;28;20051;-85
2022/11/07 10:28:45;;;;;;;12.38;3.90;;;12.50;99.90;;;;;;5092311;27;20342;-83
2022/11/07 10:31:12;;;;;;;12.00;4.05;;;12.60;99.90;;;;;;5074064;28;20028;-84
2022/11/07 10:34:10;;;;;;;8.10;4.20;;;12.70;99.90;;;;;;5056254;28;20051;-85
2022/11/07 10:36:36;;;;;;;12.27;3.88;;;12.80;99.90;;;;;;5060856;28;20048;-86
2022/11/07 10:39:11;;;;;;;15.07;4.60;;;12.90;99.90;;;;;;5068673;28;20551;-85
2022/11/07 10:41:37;;;;;;;16.27;4.40;;;12.90;99.90;;;;;;5067129;28;20044;-87
2022/11/07 10:44:08;;;;;;;9.70;4.45;;;13.00;99.90;;;;;;5040933;28;20365;-86
2022/11/07 10:46:44;;;;;;;11.75;4.35;;;13.10;99.90;;;;;;5048547;28;20083;-86
2022/11/07 10:49:21;;;;;;;12.13;4.32;;;13.20;99.90;;;;;;5056283;28;20056;-85
2022/11/07 10:51:47;;;;;;;12.65;4.60;;;13.20;99.90;;;;;;5081017;28;20051;-85
2022/11/07 10:54:26;;;;;;;10.38;3.78;;;13.30;99.90;;;;;;5062911;28;20052;-86
2022/11/07 10:57:15;;;;;;;12.43;4.20;;;13.30;99.90;;;;;;5084930;28;20051;-87
2022/11/07 10:59:57;;;;;;;13.40;5.20;;;13.40;99.90;;;;;;5069820;28;20107;-85
2022/11/07 11:02:31;;;;;;;11.52;4.45;;;13.40;99.90;;;;;;5056185;28;20048;-87
2022/11/07 11:04:59;;;;;;;12.90;3.50;;;13.40;99.90;;;;;;5050036;28;20384;-86
2022/11/07 11:07:36;;;;;;;15.40;3.75;;;13.50;99.90;;;;;;5070270;28;20407;-87
2022/11/07 11:10:02;;;;;;;11.05;3.83;;;13.50;99.90;;;;;;5049269;28;20048;-86
2022/11/07 11:12:32;;;;;;;11.77;3.42;;;13.50;99.90;;;;;;5041657;28;20095;-86
2022/11/07 11:15:10;;;;;;;11.68;4.07;;;13.60;99.90;;;;;;5042422;28;20127;-84
2022/11/07 11:17:36;;;;;;;9.35;3.65;;;13.60;99.90;;;;;;5062961;28;20503;-85
2022/11/07 11:20:02;;;;;;;14.02;4.10;;;13.70;99.90;;;;;;5094924;28;20043;-85
2022/11/07 11:22:28;;;;;;;10.23;3.90;;;13.80;99.90;;;;;;5089831;28;20031;-84
2022/11/07 11:25:20;;;;;;;8.40;3.17;;;13.80;99.90;;;;;;5103044;28;20047;-84
2022/11/07 11:27:47;;;;;;;8.10;3.30;;;13.90;99.90;;;;;;5114398;28;20060;-86
2022/11/07 11:30:19;;;;;;;9.95;3.60;;;13.90;99.90;;;;;;5053105;28;20047;-86
2022/11/07 11:32:48;;;;;;;10.07;3.40;;;13.90;99.90;;;;;;5052556;28;20106;-87
2022/11/07 11:35:36;;;;;;;10.23;3.28;;;13.90;99.90;;;;;;5076336;28;20048;-86
2022/11/07 11:38:25;;;;;;;14.95;3.13;;;14.00;99.90;;;;;;5074193;28;20047;-87
2022/11/07 11:40:56;;;;;;;11.95;3.60;;;14.00;99.90;;;;;;5041440;28;20048;-85
2022/11/07 11:43:26;;;;;;;10.40;4.03;;;14.00;99.90;;;;;;5043230;28;20047;-86
2022/11/07 11:46:27;;;;;;;8.98;3.05;;;13.90;99.90;;;;;;5057712;28;20067;-84
2022/11/07 11:48:56;;;;;;;8.05;2.75;;;14.10;99.90;;;;;;5028291;28;20056;-84
2022/11/07 11:51:31;;;;;;;8.38;3.70;;;14.20;99.90;;;;;;5084273;28;20488;-86
2022/11/07 11:53:57;;;;;;;9.43;3.40;;;14.20;99.90;;;;;;5089154;28;20055;-86
2022/11/07 11:56:30;;;;;;;14.18;3.55;;;14.20;99.90;;;;;;5091540;28;20460;-86
2022/11/07 11:59:19;;;;;;;14.80;3.67;;;14.20;99.90;;;;;;5076646;28;20046;-86
2022/11/07 12:02:03;;;;;;;10.25;3.08;;;14.20;99.90;;;;;;5094672;28;20055;-87
2022/11/07 12:04:37;;;;;;;12.20;3.15;;;14.10;99.90;;;;;;5079427;28;20112;-87
2022/11/07 12:07:30;;;;;;;11.25;3.13;;;14.10;99.90;;;;;;5077432;28;20051;-87
2022/11/07 12:10:02;;;;;;;14.45;2.97;;;14.10;99.90;;;;;;5063267;28;20048;-88
2022/11/07 12:12:47;;;;;;;7.40;3.08;;;14.20;99.90;;;;;;5077831;28;20487;-88
2022/11/07 12:15:15;;;;;;;8.05;2.83;;;14.20;99.90;;;;;;5111379;28;20047;-87
2022/11/07 12:18:07;;;;;;;10.98;3.13;;;14.20;99.90;;;;;;5092496;28;20047;-86
2022/11/07 12:20:50;;;;;;;8.38;3.00;;;14.20;99.90;;;;;;5055392;28;20279;-87
2022/11/07 12:23:44;;;;;;;7.45;3.00;;;14.20;99.90;;;;;;5061416;28;20100;-87
2022/11/07 12:26:17;;;;;;;8.45;2.85;;;14.10;99.90;;;;;;5111184;28;20142;-87
2022/11/07 12:29:11;;;;;;;7.93;2.83;;;14.20;99.90;;;;;;5095711;28;20051;-88
2022/11/07 12:32:07;;;;;;;12.60;4.10;;;14.10;99.90;;;;;;5080611;28;20441;-87
2022/11/07 12:34:43;;;;;;;10.40;2.97;;;14.10;99.90;;;;;;5094441;28;20043;-87
2022/11/07 12:37:33;;;;;;;6.97;2.80;;;14.10;99.90;;;;;;5073174;28;20047;-88
2022/11/07 12:40:05;;;;;;;6.10;2.67;;;14.10;99.90;;;;;;5103374;28;20040;-87
2022/11/07 12:42:46;;;;;;;7.32;2.40;;;14.20;99.90;;;;;;5108881;28;20097;-86
2022/11/07 12:45:40;;;;;;;7.72;2.90;;;14.30;99.90;;;;;;5112571;28;20114;-87
2022/11/07 12:48:27;;;;;;;10.53;2.97;;;14.30;99.90;;;;;;5065363;28;20047;-86
2022/11/07 12:50:56;;;;;;;6.47;2.90;;;14.40;99.90;;;;;;5090951;28;20052;-87
2022/11/07 12:53:52;;;;;;;9.00;3.25;;;14.50;99.90;;;;;;5089923;28;20484;-87
2022/11/07 12:56:20;;;;;;;7.18;2.95;;;14.50;99.90;;;;;;5073296;28;20051;-87
2022/11/07 12:58:46;;;;;;;8.02;3.00;;;14.40;99.90;;;;;;5041021;28;20123;-89
2022/11/07 13:01:12;;;;;;;8.40;2.85;;;14.50;99.90;;;;;;5056858;28;20116;-88
2022/11/07 13:03:44;;;;;;;9.50;3.22;;;14.60;99.90;;;;;;5081658;28;20098;-88